Time;durP1;ratioP1;P1;durP2;ratioP2;P2;SDS_P1;SDS_P2;PMS_P1;PMS_P2;Temp;Humidity;BMP_temperature;BMP_pressure;BME280_temperature;BME280_humidity;BME280_pressure;Samples;Min_cycle;Max_cycle;Signal;HPM_P1;HPM_P2
2022/09/04 00:00:53;;;;;;;5.45;3.40;;;17.90;99.90;;;;;;5053015;28;20040;-93
2022/09/04 00:03:56;;;;;;;12.32;4.60;;;17.90;99.90;;;;;;5055120;28;20075;-94
2022/09/04 00:06:30;;;;;;;5.15;3.55;;;17.80;99.90;;;;;;5008641;28;20474;-93
2022/09/04 00:08:59;;;;;;;4.35;3.33;;;17.80;99.90;;;;;;5056391;28;20029;-94
2022/09/04 00:11:43;;;;;;;5.72;3.85;;;17.80;99.90;;;;;;5055912;28;20027;-92
2022/09/04 00:14:32;;;;;;;5.25;4.10;;;17.80;99.90;;;;;;5041637;28;20035;-94
2022/09/04 00:17:28;;;;;;;6.35;4.00;;;17.80;99.90;;;;;;5057359;28;20042;-93
2022/09/04 00:20:00;;;;;;;4.97;3.97;;;17.80;99.90;;;;;;5063636;28;20055;-94
2022/09/04 00:22:55;;;;;;;5.80;3.85;;;17.70;99.90;;;;;;5063716;28;20034;-93
2022/09/04 00:25:28;;;;;;;5.20;4.05;;;17.70;99.90;;;;;;5053204;28;20040;-94
2022/09/04 00:28:29;;;;;;;7.95;3.63;;;17.60;99.90;;;;;;5055980;28;20504;-93
2022/09/04 00:31:11;;;;;;;5.47;3.80;;;17.70;99.90;;;;;;5032624;28;20130;-93
2022/09/04 00:33:51;;;;;;;6.43;3.22;;;17.60;99.90;;;;;;5041304;28;20509;-95
2022/09/04 00:36:20;;;;;;;5.72;3.30;;;17.60;99.90;;;;;;5053707;28;20522;-94
2022/09/04 00:38:52;;;;;;;5.88;3.80;;;17.50;99.90;;;;;;5056926;28;20031;-95
2022/09/04 00:41:51;;;;;;;;;;;17.50;99.90;;;;;;5056411;28;20060;-95
2022/09/04 00:44:55;;;;;;;5.03;2.95;;;17.40;99.90;;;;;;5056736;28;19913;-94
2022/09/04 00:47:47;;;;;;;5.82;3.25;;;17.40;99.90;;;;;;5062168;28;20120;-94
2022/09/04 00:50:45;;;;;;;6.38;3.13;;;17.30;99.90;;;;;;5064141;28;20031;-94
2022/09/04 00:53:43;;;;;;;5.97;3.47;;;17.20;99.90;;;;;;5056071;28;20435;-94
2022/09/04 00:56:19;;;;;;;4.10;3.00;;;17.20;99.90;;;;;;5049719;28;20074;-95
2022/09/04 00:59:05;;;;;;;6.32;3.97;;;17.10;99.90;;;;;;5049089;28;20029;-95
2022/09/04 01:01:31;;;;;;;7.80;4.10;;;17.20;99.90;;;;;;5053634;28;20120;-92
2022/09/04 01:03:58;;;;;;;6.20;4.18;;;17.10;99.90;;;;;;5052644;28;20115;-94
2022/09/04 01:06:29;;;;;;;8.00;4.28;;;17.10;99.90;;;;;;5052801;28;20044;-95
2022/09/04 01:09:10;;;;;;;7.95;4.45;;;17.10;99.90;;;;;;5051447;28;20032;-93
2022/09/04 01:11:59;;;;;;;6.57;4.47;;;17.00;99.90;;;;;;5066826;28;20060;-96
2022/09/04 01:14:44;;;;;;;7.70;4.15;;;17.00;99.90;;;;;;5067518;28;20051;-94
2022/09/04 01:17:31;;;;;;;5.20;4.20;;;17.00;99.90;;;;;;5071195;28;20033;-94
2022/09/04 01:20:19;;;;;;;5.57;4.05;;;16.90;99.90;;;;;;5059782;28;20024;-94
2022/09/04 01:23:12;;;;;;;8.10;3.97;;;16.90;99.90;;;;;;5062358;28;20029;-94
2022/09/04 01:26:11;;;;;;;7.68;4.65;;;16.90;99.90;;;;;;5063485;28;20024;-94
2022/09/04 01:28:55;;;;;;;6.22;4.20;;;16.80;99.90;;;;;;5055939;28;20025;-95
2022/09/04 01:31:49;;;;;;;6.72;4.43;;;16.80;99.90;;;;;;5081490;28;20012;-94
2022/09/04 01:34:34;;;;;;;6.18;4.50;;;16.70;99.90;;;;;;5050552;28;20017;-94
2022/09/04 01:37:16;;;;;;;5.75;5.00;;;16.70;99.90;;;;;;5055669;28;20116;-94
2022/09/04 01:39:49;;;;;;;5.18;4.68;;;16.70;99.90;;;;;;5058260;28;20020;-94
2022/09/04 01:42:33;;;;;;;8.30;4.93;;;16.60;99.90;;;;;;5064262;28;20068;-94
2022/09/04 01:44:58;;;;;;;7.80;5.68;;;16.60;99.90;;;;;;5042724;28;20123;-93
2022/09/04 01:47:44;;;;;;;5.85;4.93;;;16.60;99.90;;;;;;5049386;28;20119;-93
2022/09/04 01:50:22;;;;;;;7.47;5.75;;;16.60;99.90;;;;;;5057300;28;20036;-94
2022/09/04 01:52:57;;;;;;;8.15;5.43;;;16.50;99.90;;;;;;5051403;28;20051;-95
2022/09/04 01:56:03;;;;;;;9.30;5.65;;;16.50;99.90;;;;;;5052353;28;20404;-94
2022/09/04 01:58:46;;;;;;;7.68;5.15;;;16.60;99.90;;;;;;5055978;28;20175;-93
2022/09/04 02:01:34;;;;;;;6.75;5.18;;;16.50;99.90;;;;;;5054378;28;20057;-94
2022/09/04 02:04:27;;;;;;;7.75;6.47;;;16.50;99.90;;;;;;5052272;28;20033;-94
2022/09/04 02:07:13;;;;;;;8.68;6.88;;;16.50;99.90;;;;;;5051435;28;20049;-94
2022/09/04 02:10:07;;;;;;;7.95;6.53;;;16.40;99.90;;;;;;5049834;28;20116;-94
2022/09/04 02:13:07;;;;;;;10.40;6.10;;;16.40;99.90;;;;;;5036186;28;20028;-94
2022/09/04 02:16:09;;;;;;;9.02;6.28;;;16.40;99.90;;;;;;5042238;28;20056;-96
2022/09/04 02:19:04;;;;;;;9.63;7.25;;;16.40;99.90;;;;;;5053334;28;20025;-92
2022/09/04 02:21:39;;;;;;;8.63;6.70;;;16.40;99.90;;;;;;5031664;28;20476;-94
2022/09/04 02:24:19;;;;;;;12.07;7.18;;;16.40;99.90;;;;;;5037843;28;20036;-93
2022/09/04 02:26:59;;;;;;;11.80;7.82;;;16.30;99.90;;;;;;5028936;28;20029;-94
2022/09/04 02:29:41;;;;;;;11.98;8.13;;;16.40;99.90;;;;;;5048100;28;20070;-93
2022/09/04 02:32:18;;;;;;;9.97;7.53;;;16.40;99.90;;;;;;5032027;28;20025;-94
2022/09/04 02:34:55;;;;;;;9.88;7.60;;;16.40;99.90;;;;;;5028773;28;20427;-93
2022/09/04 02:37:53;;;;;;;12.13;8.38;;;16.30;99.90;;;;;;5037973;28;20025;-93
2022/09/04 02:40:47;;;;;;;12.25;8.20;;;16.30;99.90;;;;;;5041078;28;20048;-93
2022/09/04 02:43:24;;;;;;;10.55;8.10;;;16.30;99.90;;;;;;5027653;28;20025;-94
2022/09/04 02:46:05;;;;;;;11.13;8.35;;;16.30;99.90;;;;;;5051195;28;20476;-93
2022/09/04 02:48:50;;;;;;;8.77;7.88;;;16.20;99.90;;;;;;5029455;28;20028;-94
2022/09/04 02:52:00;;;;;;;9.43;7.57;;;16.10;99.90;;;;;;5034931;28;20057;-93
2022/09/04 02:54:51;;;;;;;10.50;7.90;;;16.10;99.90;;;;;;4987481;28;20514;-93
2022/09/04 02:57:32;;;;;;;11.73;9.40;;;16.10;99.90;;;;;;5033938;28;20397;-93
2022/09/04 03:00:16;;;;;;;11.63;8.77;;;16.00;99.90;;;;;;5034734;28;20383;-93
2022/09/04 03:02:56;;;;;;;12.10;9.55;;;16.00;99.90;;;;;;5035791;28;20028;-92
2022/09/04 03:05:28;;;;;;;11.60;9.52;;;16.00;99.90;;;;;;5033805;28;20051;-92
2022/09/04 03:08:03;;;;;;;12.85;10.13;;;16.00;99.90;;;;;;5072463;28;20501;-92
2022/09/04 03:10:35;;;;;;;15.70;10.68;;;15.90;99.90;;;;;;5041989;28;20374;-92
2022/09/04 03:13:26;;;;;;;15.60;11.18;;;15.90;99.90;;;;;;5048369;28;20469;-92
2022/09/04 03:16:05;;;;;;;13.70;10.52;;;15.90;99.90;;;;;;5060421;28;20043;-93
2022/09/04 03:18:52;;;;;;;14.35;11.52;;;15.90;99.90;;;;;;5049429;28;20021;-93
2022/09/04 03:21:55;;;;;;;12.57;10.35;;;15.90;99.90;;;;;;5051859;28;20067;-92
2022/09/04 03:24:29;;;;;;;;;;;15.90;99.90;;;;;;5056050;28;20055;-92
2022/09/04 03:27:06;;;;;;;14.48;10.65;;;15.80;99.90;;;;;;5064600;28;19908;-92
2022/09/04 03:29:54;;;;;;;16.35;12.13;;;15.80;99.90;;;;;;5052034;28;20088;-91
2022/09/04 03:32:28;;;;;;;15.60;11.38;;;15.80;99.90;;;;;;5049036;28;20032;-92
2022/09/04 03:35:15;;;;;;;18.13;11.00;;;15.80;99.90;;;;;;5060878;28;20036;-92
2022/09/04 03:38:02;;;;;;;14.75;12.05;;;15.90;99.90;;;;;;5042753;28;20029;-93
2022/09/04 03:40:36;;;;;;;17.23;13.20;;;15.80;99.90;;;;;;5071122;28;20028;-93
2022/09/04 03:43:39;;;;;;;17.80;13.43;;;15.90;99.90;;;;;;5068881;28;20028;-90
2022/09/04 03:46:13;;;;;;;18.40;13.57;;;15.90;99.90;;;;;;5073934;28;20040;-91
2022/09/04 03:49:01;;;;;;;17.90;14.00;;;15.80;99.90;;;;;;5059954;28;20035;-92
2022/09/04 03:51:36;;;;;;;17.85;14.23;;;15.80;99.90;;;;;;5084901;28;20032;-93
2022/09/04 03:54:22;;;;;;;18.73;14.35;;;15.80;99.90;;;;;;5051742;28;20074;-93
2022/09/04 03:57:13;;;;;;;19.73;14.70;;;15.80;99.90;;;;;;5086271;28;20040;-93
2022/09/04 03:59:57;;;;;;;16.98;14.20;;;15.80;99.90;;;;;;5075318;28;20025;-92
2022/09/04 04:02:29;;;;;;;19.00;13.43;;;15.80;99.90;;;;;;5070675;28;20029;-92
2022/09/04 04:05:12;;;;;;;19.60;14.30;;;15.90;99.90;;;;;;5069522;28;20032;-91
2022/09/04 04:08:15;;;;;;;17.77;13.82;;;15.90;99.90;;;;;;5055470;28;20381;-92
2022/09/04 04:10:57;;;;;;;;;;;15.90;99.90;;;;;;5047087;28;20045;-93
2022/09/04 04:13:40;;;;;;;20.30;13.57;;;15.90;99.90;;;;;;5055668;28;20292;-92
2022/09/04 04:16:46;;;;;;;17.77;13.70;;;15.90;99.90;;;;;;5056115;28;20032;-93
2022/09/04 04:19:38;;;;;;;16.45;13.52;;;15.80;99.90;;;;;;5082960;28;20028;-93
2022/09/04 04:22:20;;;;;;;20.40;14.60;;;15.80;99.90;;;;;;5064487;28;20042;-92
2022/09/04 04:25:13;;;;;;;19.75;14.45;;;15.80;99.90;;;;;;5072119;28;20067;-92
2022/09/04 04:28:06;;;;;;;19.52;14.32;;;15.80;99.90;;;;;;5069703;28;20028;-93
2022/09/04 04:30:53;;;;;;;20.63;14.98;;;15.80;99.90;;;;;;5049624;28;20025;-93
2022/09/04 04:33:37;;;;;;;18.27;14.02;;;15.80;99.90;;;;;;5042902;28;20051;-93
2022/09/04 04:36:24;;;;;;;20.15;15.15;;;15.70;99.90;;;;;;5051815;28;20049;-92
2022/09/04 04:39:04;;;;;;;19.45;14.20;;;15.70;99.90;;;;;;5050167;28;20107;-92
2022/09/04 04:42:04;;;;;;;19.63;14.32;;;15.80;99.90;;;;;;5070091;28;20040;-93
2022/09/04 04:47:57;;;;;;;20.00;14.70;;;15.70;99.90;;;;;;5071295;28;20047;-92
2022/09/04 04:50:49;;;;;;;15.75;13.48;;;15.80;99.90;;;;;;5063874;28;20024;-92
2022/09/04 04:53:38;;;;;;;22.15;14.50;;;15.70;99.90;;;;;;5069614;28;20032;-92
2022/09/04 04:56:30;;;;;;;19.50;15.70;;;15.70;99.90;;;;;;5068884;28;20040;-92
2022/09/04 04:59:42;;;;;;;19.83;14.18;;;15.70;99.90;;;;;;5054097;28;20472;-93
2022/09/04 05:02:25;;;;;;;19.38;14.30;;;15.70;99.90;;;;;;5083246;28;20048;-93
2022/09/04 05:05:12;;;;;;;18.95;14.85;;;15.60;99.90;;;;;;5088316;28;20024;-93
2022/09/04 05:07:59;;;;;;;18.58;14.32;;;15.60;99.90;;;;;;5060031;28;20037;-91
2022/09/04 05:10:41;;;;;;;18.63;14.13;;;15.60;99.90;;;;;;5059613;28;20089;-92
2022/09/04 05:13:23;;;;;;;19.98;14.75;;;15.60;99.90;;;;;;5075792;28;20059;-92
2022/09/04 05:16:19;;;;;;;22.63;14.68;;;15.70;99.90;;;;;;5086351;28;20051;-93
2022/09/04 05:18:58;;;;;;;20.48;15.57;;;15.70;99.90;;;;;;5104743;28;20032;-91
2022/09/04 05:21:35;;;;;;;20.85;15.45;;;15.70;99.90;;;;;;5050655;28;20449;-92
2022/09/04 05:24:03;;;;;;;18.67;14.65;;;15.80;99.90;;;;;;5051315;28;20044;-93
2022/09/04 05:26:34;;;;;;;19.13;15.20;;;15.80;99.90;;;;;;5070509;28;20076;-93
2022/09/04 05:29:22;;;;;;;19.00;15.32;;;15.80;99.90;;;;;;5060840;28;20028;-93
2022/09/04 05:32:11;;;;;;;20.45;15.00;;;15.80;99.90;;;;;;5066965;28;20028;-92
2022/09/04 05:34:50;;;;;;;21.67;16.10;;;15.90;99.90;;;;;;5051674;28;20032;-92
2022/09/04 05:37:22;;;;;;;18.55;14.88;;;15.90;99.90;;;;;;5072226;28;20016;-92
2022/09/04 05:40:13;;;;;;;19.63;15.40;;;15.90;99.90;;;;;;5062326;28;20024;-94
2022/09/04 05:43:04;;;;;;;20.10;15.57;;;16.00;99.90;;;;;;5072299;22;20409;-73
2022/09/04 05:46:06;;;;;;;21.73;15.10;;;16.00;99.90;;;;;;5060425;28;20021;-73
2022/09/04 05:48:44;;;;;;;19.50;14.87;;;16.10;99.90;;;;;;5073490;28;20025;-73
2022/09/04 05:51:41;;;;;;;23.45;16.48;;;16.10;99.90;;;;;;5056013;28;20028;-73
2022/09/04 05:54:19;;;;;;;21.27;14.45;;;16.20;99.90;;;;;;5053998;28;20028;-73
2022/09/04 05:57:09;;;;;;;18.00;14.82;;;16.20;99.90;;;;;;5051279;28;20488;-73
2022/09/04 06:00:02;;;;;;;21.42;15.40;;;16.20;99.90;;;;;;5072180;28;20036;-73
2022/09/04 06:02:55;;;;;;;20.95;16.10;;;16.30;99.90;;;;;;5051972;28;20054;-73
2022/09/04 06:05:41;;;;;;;20.52;14.85;;;16.40;99.90;;;;;;5057970;28;20086;-73
2022/09/04 06:08:37;;;;;;;20.42;15.55;;;16.40;99.90;;;;;;5036446;28;20483;-73
2022/09/04 06:11:35;;;;;;;23.60;16.60;;;16.60;99.90;;;;;;5069955;28;20549;-73
2022/09/04 06:14:21;;;;;;;21.70;14.93;;;16.60;99.90;;;;;;5049647;28;20052;-73
2022/09/04 06:17:17;;;;;;;19.58;15.93;;;16.70;99.90;;;;;;5057019;28;20087;-72
2022/09/04 06:20:05;;;;;;;21.27;15.98;;;16.80;99.90;;;;;;5050893;28;20068;-73
2022/09/04 06:22:36;;;;;;;17.90;15.05;;;16.90;99.90;;;;;;5048147;28;20032;-72
2022/09/04 06:25:30;;;;;;;20.40;15.27;;;16.90;99.90;;;;;;5057517;28;20017;-75
2022/09/04 06:28:07;;;;;;;18.58;15.43;;;17.00;99.90;;;;;;5067054;28;20024;-73
2022/09/04 06:30:55;;;;;;;21.70;15.43;;;17.10;99.90;;;;;;5046378;28;20555;-74
2022/09/04 06:33:38;;;;;;;18.95;15.98;;;17.10;99.90;;;;;;5063834;28;20020;-74
2022/09/04 06:36:30;;;;;;;21.60;15.82;;;17.20;99.90;;;;;;5048450;28;20127;-73
2022/09/04 06:39:05;;;;;;;20.23;15.50;;;17.30;99.90;;;;;;5053855;28;20063;-72
2022/09/04 06:41:55;;;;;;;19.55;15.15;;;17.30;99.90;;;;;;5063637;28;20102;-73
2022/09/04 06:44:56;;;;;;;17.95;15.93;;;17.40;99.90;;;;;;5045738;28;20574;-72
2022/09/04 06:47:34;;;;;;;19.40;14.77;;;17.60;99.90;;;;;;5045172;28;20024;-73
2022/09/04 06:50:08;;;;;;;17.75;14.88;;;17.70;99.90;;;;;;5050545;28;20033;-73
2022/09/04 06:53:01;;;;;;;19.17;15.70;;;17.80;99.90;;;;;;5043887;28;20020;-72
2022/09/04 06:56:01;;;;;;;17.70;14.48;;;17.90;99.90;;;;;;5060634;28;20033;-73
2022/09/04 06:59:00;;;;;;;19.35;15.10;;;18.00;99.90;;;;;;5064227;28;20495;-73
2022/09/04 07:01:43;;;;;;;20.10;14.98;;;18.10;99.90;;;;;;5062394;28;20059;-73
2022/09/04 07:04:30;;;;;;;20.23;15.80;;;18.20;99.90;;;;;;5058091;28;20480;-72
2022/09/04 07:07:26;;;;;;;22.65;15.23;;;18.20;99.90;;;;;;5048644;28;20020;-73
2022/09/04 07:10:02;;;;;;;19.30;14.60;;;18.30;99.90;;;;;;5055511;28;20097;-72
2022/09/04 07:12:39;;;;;;;16.73;14.35;;;18.40;99.90;;;;;;5045841;28;20428;-72
2022/09/04 07:15:38;;;;;;;20.50;15.20;;;18.50;99.90;;;;;;5059387;28;20055;-73
2022/09/04 07:18:41;;;;;;;16.27;14.52;;;18.60;99.90;;;;;;5052197;28;20503;-73
2022/09/04 07:21:28;;;;;;;20.08;15.27;;;18.80;99.90;;;;;;5068311;28;20036;-74
2022/09/04 07:24:05;;;;;;;22.42;14.32;;;18.90;99.90;;;;;;5052029;28;20064;-74
2022/09/04 07:27:05;;;;;;;23.05;14.90;;;19.10;99.90;;;;;;5066252;28;20025;-75
2022/09/04 07:30:00;;;;;;;16.45;14.25;;;19.10;99.90;;;;;;5058207;28;20061;-74
2022/09/04 07:32:52;;;;;;;15.23;13.48;;;19.30;99.90;;;;;;5064109;28;20033;-75
2022/09/04 07:35:29;;;;;;;16.38;14.23;;;19.40;99.90;;;;;;5068404;28;20059;-74
2022/09/04 07:38:09;;;;;;;17.40;14.60;;;19.60;99.90;;;;;;5067398;28;20092;-74
2022/09/04 07:40:47;;;;;;;15.65;13.68;;;19.70;99.90;;;;;;5069939;28;20035;-74
2022/09/04 07:43:22;;;;;;;17.00;13.90;;;19.80;99.90;;;;;;5071762;28;20080;-75
2022/09/04 07:46:04;;;;;;;18.67;14.75;;;19.90;99.90;;;;;;5070290;28;20033;-74
2022/09/04 07:48:33;;;;;;;15.93;12.23;;;20.10;99.90;;;;;;5067950;28;20025;-74
2022/09/04 07:51:22;;;;;;;17.23;13.70;;;20.20;99.90;;;;;;5070178;28;20036;-74
2022/09/04 07:54:42;;;;;;;15.80;13.00;;;20.30;99.90;;;;;;5063192;28;20021;-74
2022/09/04 07:57:35;;;;;;;13.75;12.35;;;20.50;99.90;;;;;;4983020;28;20265;-73
2022/09/04 08:00:21;;;;;;;16.33;12.93;;;20.60;99.90;;;;;;5066642;28;20404;-74
2022/09/04 08:02:49;;;;;;;14.15;12.00;;;20.80;99.90;;;;;;5065954;28;20089;-73
2022/09/04 08:05:32;;;;;;;16.98;12.80;;;20.90;99.90;;;;;;5052022;28;20029;-73
2022/09/04 08:08:13;;;;;;;13.02;11.40;;;21.00;99.90;;;;;;5065262;28;20033;-73
2022/09/04 08:11:04;;;;;;;15.45;11.68;;;21.20;99.90;;;;;;5071083;28;20023;-74
2022/09/04 08:14:08;;;;;;;15.57;12.68;;;21.30;99.90;;;;;;5069474;28;20036;-73
2022/09/04 08:17:05;;;;;;;15.55;12.00;;;21.50;99.90;;;;;;5065966;28;20028;-73
2022/09/04 08:19:55;;;;;;;14.38;12.35;;;21.70;99.90;;;;;;5069153;28;20029;-73
2022/09/04 08:22:55;;;;;;;12.15;10.85;;;21.80;99.90;;;;;;5070466;28;20020;-74
2022/09/04 08:25:53;;;;;;;12.88;10.55;;;22.00;99.90;;;;;;5052356;28;20305;-74
2022/09/04 08:28:32;;;;;;;16.13;12.68;;;22.10;99.90;;;;;;5056889;28;20025;-74
2022/09/04 08:31:28;;;;;;;15.00;12.02;;;22.30;99.90;;;;;;5059986;28;20020;-74
2022/09/04 08:34:09;;;;;;;17.60;11.65;;;22.40;99.90;;;;;;5051593;28;20021;-74
2022/09/04 08:36:54;;;;;;;13.90;11.60;;;22.50;99.90;;;;;;5052355;28;20095;-73
2022/09/04 08:39:48;;;;;;;21.02;11.77;;;22.70;99.90;;;;;;5050304;28;20114;-74
2022/09/04 08:42:19;;;;;;;11.55;9.95;;;22.80;99.90;;;;;;5064487;28;20053;-74
2022/09/04 08:45:21;;;;;;;14.77;11.02;;;23.00;99.90;;;;;;5068160;28;20028;-74
2022/09/04 08:48:09;;;;;;;11.18;10.02;;;23.10;99.90;;;;;;5052331;28;20028;-74
2022/09/04 08:50:50;;;;;;;11.65;10.45;;;23.20;99.90;;;;;;5051315;28;20066;-74
2022/09/04 08:53:53;;;;;;;15.85;11.65;;;23.30;99.90;;;;;;5066666;28;20027;-74
2022/09/04 08:56:43;;;;;;;12.75;10.38;;;23.40;99.90;;;;;;5070644;28;20517;-74
2022/09/04 08:59:24;;;;;;;10.95;9.90;;;23.50;99.90;;;;;;5066530;28;20021;-74
2022/09/04 09:02:08;;;;;;;12.13;9.93;;;23.70;99.90;;;;;;5057216;28;20064;-74
2022/09/04 09:04:53;;;;;;;11.82;9.90;;;23.60;99.90;;;;;;5038534;28;20104;-74
2022/09/04 09:07:44;;;;;;;13.38;9.68;;;23.80;99.90;;;;;;5051675;28;20028;-74
2022/09/04 09:10:49;;;;;;;12.40;9.68;;;23.90;99.80;;;;;;5068411;28;20052;-74
2022/09/04 09:13:27;;;;;;;12.80;10.23;;;24.00;99.40;;;;;;5066534;28;20078;-73
2022/09/04 09:16:04;;;;;;;14.05;10.43;;;24.10;99.20;;;;;;5070244;28;20067;-74
2022/09/04 09:18:32;;;;;;;13.65;10.10;;;24.20;98.90;;;;;;5052472;28;20025;-74
2022/09/04 09:21:11;;;;;;;11.40;9.98;;;24.30;98.70;;;;;;5064619;28;20033;-74
2022/09/04 09:24:08;;;;;;;13.07;10.18;;;24.40;98.40;;;;;;5065518;28;20024;-74
2022/09/04 09:27:10;;;;;;;11.30;9.77;;;24.50;98.10;;;;;;5069185;28;20017;-74
2022/09/04 09:30:04;;;;;;;10.43;9.32;;;24.60;97.90;;;;;;5033999;28;20039;-73
2022/09/04 09:32:50;;;;;;;11.77;8.98;;;24.80;97.70;;;;;;5049897;28;20036;-74
2022/09/04 09:35:33;;;;;;;11.18;9.57;;;24.90;97.20;;;;;;5072965;28;20071;-74
2022/09/04 09:38:23;;;;;;;12.02;7.95;;;25.00;96.90;;;;;;5067398;28;20047;-74
2022/09/04 09:41:19;;;;;;;16.20;9.63;;;25.00;96.50;;;;;;5066571;28;20060;-73
2022/09/04 09:44:09;;;;;;;10.20;8.90;;;25.10;96.30;;;;;;5065094;28;20029;-74
2022/09/04 09:47:00;;;;;;;11.23;8.60;;;25.20;96.20;;;;;;5072478;28;20520;-74
2022/09/04 09:49:57;;;;;;;8.90;7.33;;;25.20;95.70;;;;;;5064420;28;20025;-74
2022/09/04 09:53:01;;;;;;;8.27;6.55;;;25.30;95.60;;;;;;5061746;28;20048;-74
2022/09/04 09:55:55;;;;;;;9.73;7.68;;;25.30;95.40;;;;;;5050449;28;20385;-74
2022/09/04 09:58:24;;;;;;;8.57;6.00;;;25.40;94.90;;;;;;5071140;28;20123;-74
2022/09/04 10:01:13;;;;;;;8.90;6.03;;;25.50;94.80;;;;;;5052052;28;20025;-73
2022/09/04 10:03:41;;;;;;;8.10;6.00;;;25.60;94.40;;;;;;5063885;28;20017;-73
2022/09/04 10:06:32;;;;;;;10.27;5.78;;;25.70;94.20;;;;;;5066762;28;20063;-73
2022/09/04 10:09:36;;;;;;;9.35;5.50;;;25.80;94.30;;;;;;5064230;28;20036;-73
2022/09/04 10:12:21;;;;;;;7.97;6.07;;;26.00;93.70;;;;;;5067842;28;20048;-73
2022/09/04 10:15:40;;;;;;;6.30;4.38;;;26.20;93.20;;;;;;5058870;28;20029;-73
2022/09/04 10:18:31;;;;;;;7.25;4.53;;;26.30;93.00;;;;;;4990327;28;20105;-74
2022/09/04 10:21:15;;;;;;;8.05;4.63;;;26.30;92.60;;;;;;5067248;28;20075;-73
2022/09/04 10:23:57;;;;;;;7.30;4.13;;;26.50;92.30;;;;;;5066771;28;20496;-74
2022/09/04 10:26:41;;;;;;;6.03;4.85;;;26.50;91.90;;;;;;5051526;28;20094;-74
2022/09/04 10:29:20;;;;;;;6.85;4.85;;;26.60;91.60;;;;;;5070007;28;20028;-73
2022/09/04 10:32:15;;;;;;;5.97;3.80;;;26.70;91.20;;;;;;5064816;28;20120;-73
2022/09/04 10:35:10;;;;;;;7.40;4.13;;;26.70;90.90;;;;;;5052717;28;20480;-73
2022/09/04 10:38:09;;;;;;;4.18;2.60;;;26.90;90.50;;;;;;5048454;28;20040;-74
2022/09/04 10:41:14;;;;;;;5.35;3.40;;;26.80;90.30;;;;;;5053629;28;20031;-73
2022/09/04 10:44:04;;;;;;;4.55;3.40;;;27.00;90.00;;;;;;5070313;28;20472;-74
2022/09/04 10:46:58;;;;;;;5.03;3.47;;;27.10;89.20;;;;;;5068643;28;20020;-73
2022/09/04 10:49:52;;;;;;;5.65;2.47;;;27.30;88.80;;;;;;5062722;28;20025;-73
2022/09/04 10:52:42;;;;;;;5.28;3.00;;;27.40;88.00;;;;;;5053618;28;20079;-74
2022/09/04 10:55:29;;;;;;;6.45;2.70;;;27.50;86.90;;;;;;5068142;28;20037;-73
2022/09/04 10:58:22;;;;;;;4.35;3.00;;;27.50;86.00;;;;;;5051045;28;20115;-73
2022/09/04 11:01:29;;;;;;;4.28;3.10;;;27.60;85.60;;;;;;5057037;28;20028;-74
2022/09/04 11:04:35;;;;;;;5.95;2.92;;;27.50;85.60;;;;;;5051156;28;20043;-74
2022/09/04 11:07:41;;;;;;;4.20;2.38;;;27.60;85.60;;;;;;5070772;28;20024;-73
2022/09/04 11:10:42;;;;;;;4.15;2.03;;;27.70;84.60;;;;;;5071949;28;20024;-74
2022/09/04 11:13:30;;;;;;;3.78;2.13;;;27.70;84.30;;;;;;5018055;28;20044;-75
2022/09/04 11:16:20;;;;;;;3.03;1.42;;;27.70;83.90;;;;;;5060850;28;20044;-74
2022/09/04 11:19:21;;;;;;;5.78;1.48;;;27.70;83.40;;;;;;5062214;28;20021;-74
2022/09/04 11:22:33;;;;;;;2.17;0.90;;;27.60;83.50;;;;;;5066042;28;20028;-74
2022/09/04 11:25:31;;;;;;;3.50;1.35;;;27.60;83.10;;;;;;5012949;28;20444;-75
2022/09/04 11:28:11;;;;;;;4.07;1.13;;;27.70;82.90;;;;;;5068847;28;20031;-74
2022/09/04 11:31:09;;;;;;;3.42;1.30;;;27.70;82.70;;;;;;5068112;28;20098;-75
2022/09/04 11:34:22;;;;;;;3.33;1.38;;;27.80;82.30;;;;;;5071569;28;20476;-74
2022/09/04 11:37:25;;;;;;;2.47;1.02;;;27.80;81.90;;;;;;5070213;28;20040;-74
2022/09/04 11:40:10;;;;;;;3.75;0.90;;;27.90;81.40;;;;;;5065365;28;20392;-74
2022/09/04 11:42:49;;;;;;;1.70;0.70;;;28.00;80.50;;;;;;5066436;28;20048;-74
2022/09/04 11:45:38;;;;;;;1.70;0.50;;;28.10;80.60;;;;;;5066534;28;20029;-75
2022/09/04 11:48:22;;;;;;;2.10;0.50;;;28.20;79.70;;;;;;5062603;28;20024;-75
2022/09/04 11:51:16;;;;;;;1.05;0.45;;;28.30;78.60;;;;;;5064526;28;20685;-74
2022/09/04 11:54:24;;;;;;;4.18;0.50;;;28.30;77.90;;;;;;5064537;28;20029;-74
2022/09/04 11:56:55;;;;;;;3.30;0.40;;;28.30;77.60;;;;;;5028856;28;20519;-74
2022/09/04 11:59:59;;;;;;;1.15;0.30;;;28.40;77.60;;;;;;5033765;28;20401;-74
2022/09/04 12:02:31;;;;;;;2.63;0.40;;;28.60;76.30;;;;;;5066588;28;20029;-74
2022/09/04 12:05:42;;;;;;;1.27;0.40;;;28.70;75.40;;;;;;5069942;28;20472;-74
2022/09/04 12:08:26;;;;;;;3.20;0.50;;;28.60;75.20;;;;;;5063790;28;20020;-74
2022/09/04 12:11:30;;;;;;;1.25;0.50;;;28.70;74.80;;;;;;5065476;28;20028;-74
2022/09/04 12:14:44;;;;;;;1.42;0.52;;;29.00;74.70;;;;;;5069285;28;20029;-74
2022/09/04 12:17:46;;;;;;;1.48;0.40;;;29.30;73.60;;;;;;5008549;28;20139;-75
2022/09/04 12:20:41;;;;;;;1.80;0.43;;;29.40;72.60;;;;;;5049914;28;20039;-75
2022/09/04 12:23:41;;;;;;;2.63;0.40;;;29.50;71.30;;;;;;5049680;28;20052;-75
2022/09/04 12:26:21;;;;;;;1.25;0.32;;;29.60;70.70;;;;;;5050928;28;20029;-74
2022/09/04 12:29:19;;;;;;;0.80;0.30;;;29.70;69.90;;;;;;5034097;28;20027;-74
2022/09/04 12:32:17;;;;;;;1.77;0.40;;;29.70;69.10;;;;;;5064490;28;20083;-73
2022/09/04 12:34:57;;;;;;;3.38;0.60;;;29.80;68.70;;;;;;5049506;28;20777;-74
2022/09/04 12:38:08;;;;;;;1.00;0.40;;;29.80;68.20;;;;;;5071426;28;20024;-74
2022/09/04 12:41:15;;;;;;;2.22;0.35;;;29.80;67.50;;;;;;5052182;28;20021;-74
2022/09/04 12:44:10;;;;;;;1.15;0.40;;;29.70;67.40;;;;;;5033314;28;20257;-74
2022/09/04 12:46:47;;;;;;;1.50;0.30;;;29.60;67.30;;;;;;5031459;28;20025;-74
2022/09/04 12:49:34;;;;;;;0.80;0.30;;;29.50;67.50;;;;;;5038979;28;20031;-74
2022/09/04 12:52:10;;;;;;;0.73;0.30;;;29.50;66.90;;;;;;5046017;28;20024;-74
2022/09/04 12:54:55;;;;;;;1.40;0.40;;;29.60;66.30;;;;;;5041615;28;20143;-74
2022/09/04 12:57:43;;;;;;;1.65;0.40;;;29.70;65.90;;;;;;5043384;28;20028;-75
2022/09/04 13:00:11;;;;;;;1.80;0.47;;;29.70;65.40;;;;;;5037170;28;20027;-74
2022/09/04 13:03:24;;;;;;;1.15;0.40;;;29.70;65.10;;;;;;5042487;28;20541;-75
2022/09/04 13:06:08;;;;;;;1.10;0.30;;;29.80;64.80;;;;;;4959079;28;20046;-75
2022/09/04 13:08:56;;;;;;;3.17;0.50;;;29.90;64.00;;;;;;5046440;28;20020;-75
2022/09/04 13:11:44;;;;;;;1.48;0.30;;;30.00;63.50;;;;;;5044503;28;20030;-74
2022/09/04 13:15:01;;;;;;;1.17;0.30;;;29.90;63.30;;;;;;5040161;28;20022;-75
2022/09/04 13:17:42;;;;;;;1.17;0.40;;;29.80;63.40;;;;;;5026880;28;20079;-74
2022/09/04 13:20:34;;;;;;;1.48;0.40;;;29.80;63.50;;;;;;5047568;28;20029;-74
2022/09/04 13:23:25;;;;;;;2.20;0.40;;;29.80;63.30;;;;;;5052107;28;20025;-74
2022/09/04 13:26:35;;;;;;;0.70;0.40;;;29.70;63.60;;;;;;5047768;28;20036;-75
2022/09/04 13:29:18;;;;;;;2.05;0.40;;;29.70;63.60;;;;;;5048496;28;20028;-75
2022/09/04 13:32:11;;;;;;;1.33;0.50;;;29.80;63.40;;;;;;5049659;28;20029;-75
2022/09/04 13:34:49;;;;;;;2.28;0.43;;;29.80;62.70;;;;;;5036885;28;20485;-76
2022/09/04 13:37:22;;;;;;;1.50;0.47;;;29.70;62.50;;;;;;5044614;28;20068;-75
2022/09/04 13:40:02;;;;;;;1.95;0.40;;;29.80;62.40;;;;;;5043898;28;20025;-75
2022/09/04 13:43:00;;;;;;;1.10;0.40;;;29.90;61.90;;;;;;5063083;28;20062;-73
2022/09/04 13:45:28;;;;;;;1.48;0.43;;;30.10;60.90;;;;;;4976507;28;20447;-76
2022/09/04 13:48:05;;;;;;;2.25;0.60;;;30.00;60.30;;;;;;5063770;28;20380;-75
2022/09/04 13:50:54;;;;;;;0.85;0.45;;;30.00;60.00;;;;;;5050780;28;20029;-75
2022/09/04 13:53:35;;;;;;;1.65;0.50;;;29.90;59.80;;;;;;5057932;28;20481;-75
2022/09/04 13:56:17;;;;;;;1.50;0.40;;;30.00;59.30;;;;;;5061314;28;20028;-75
2022/09/04 13:58:48;;;;;;;2.05;0.50;;;30.00;59.60;;;;;;5067647;28;20040;-75
2022/09/04 14:01:20;;;;;;;3.73;0.50;;;30.00;59.50;;;;;;5057772;28;20051;-72
2022/09/04 14:03:54;;;;;;;1.92;0.50;;;30.10;59.30;;;;;;5059349;28;20285;-75
2022/09/04 14:06:23;;;;;;;2.42;0.47;;;30.20;59.40;;;;;;5059776;28;20025;-75
2022/09/04 14:08:54;;;;;;;2.17;0.60;;;30.20;59.20;;;;;;5055863;28;20029;-75
2022/09/04 14:11:57;;;;;;;1.48;0.50;;;30.30;58.40;;;;;;5067509;28;20460;-75
2022/09/04 14:14:58;;;;;;;2.00;0.50;;;30.30;58.20;;;;;;5068999;28;20086;-75
2022/09/04 14:17:33;;;;;;;2.33;0.50;;;30.20;57.60;;;;;;5027895;28;20045;-75
2022/09/04 14:20:11;;;;;;;1.55;0.50;;;30.20;57.40;;;;;;5058786;28;20020;-75
2022/09/04 14:22:43;;;;;;;1.50;0.52;;;30.20;57.20;;;;;;5063085;28;20539;-76
2022/09/04 14:25:24;;;;;;;2.38;0.50;;;30.20;57.10;;;;;;5063572;28;20090;-75